Time;durP1;ratioP1;P1;durP2;ratioP2;P2;SDS_P1;SDS_P2;PMS_P1;PMS_P2;Temp;Humidity;BMP_temperature;BMP_pressure;BME280_temperature;BME280_humidity;BME280_pressure;Samples;Min_cycle;Max_cycle;Signal;HPM_P1;HPM_P2
2021/01/10 00:01:47;;;;;;;20.23;12.15;;;;;;;;;;5095531;28;20040;-74
2021/01/10 00:04:12;;;;;;;20.42;13.02;;;;;;;;;;5095250;28;20375;-74
2021/01/10 00:06:38;;;;;;;19.27;12.35;;;;;;;;;;5094266;28;20040;-73
2021/01/10 00:09:05;;;;;;;24.08;13.63;;;;;;;;;;5095779;28;20036;-73
2021/01/10 00:11:30;;;;;;;21.02;13.38;;;;;;;;;;5096044;28;20032;-73
2021/01/10 00:13:55;;;;;;;22.83;13.75;;;;;;;;;;5095099;28;20032;-74
2021/01/10 00:16:21;;;;;;;19.77;12.45;;;;;;;;;;5095679;28;20106;-74
2021/01/10 00:18:46;;;;;;;19.27;12.50;;;;;;;;;;5095354;28;20118;-73
2021/01/10 00:21:11;;;;;;;18.70;12.23;;;;;;;;;;5095630;28;20123;-74
2021/01/10 00:23:37;;;;;;;22.17;13.50;;;;;;;;;;5095295;28;20462;-73
2021/01/10 00:26:02;;;;;;;21.05;11.43;;;;;;;;;;5095468;28;20036;-73
2021/01/10 00:28:27;;;;;;;18.20;12.35;;;;;;;;;;5094124;28;20042;-74
2021/01/10 00:30:53;;;;;;;21.70;13.45;;;;;;;;;;5095163;28;20128;-73
2021/01/10 00:33:18;;;;;;;21.35;13.13;;;;;;;;;;5095240;28;20119;-74
2021/01/10 00:35:44;;;;;;;23.70;14.02;;;;;;;;;;5095421;28;20107;-74
2021/01/10 00:38:09;;;;;;;26.27;14.75;;;;;;;;;;5094909;28;20122;-74
2021/01/10 00:40:34;;;;;;;22.33;14.65;;;;;;;;;;5095312;28;20107;-74
2021/01/10 00:43:00;;;;;;;23.58;14.68;;;;;;;;;;5095149;28;20458;-74
2021/01/10 00:45:25;;;;;;;21.20;14.20;;;;;;;;;;5094634;28;20043;-74
2021/01/10 00:47:54;;;;;;;25.20;15.98;;;;;;;;;;5094768;28;20107;-74
2021/01/10 00:50:22;;;;;;;23.08;14.02;;;;;;;;;;5093227;28;20032;-74
2021/01/10 00:52:48;;;;;;;24.98;15.40;;;;;;;;;;5093473;28;20051;-74
2021/01/10 00:55:14;;;;;;;26.50;14.65;;;;;;;;;;5093085;28;20122;-74
2021/01/10 00:57:39;;;;;;;26.73;15.15;;;;;;;;;;5094765;28;20028;-74
2021/01/10 01:00:13;;;;;;;27.50;15.95;;;;;;;;;;5093169;28;20044;-74
2021/01/10 01:02:43;;;;;;;26.80;16.33;;;;;;;;;;5094551;28;20035;-74
2021/01/10 01:05:09;;;;;;;23.63;15.50;;;;;;;;;;5093315;28;20035;-74
2021/01/10 01:07:35;;;;;;;26.42;15.75;;;;;;;;;;5094286;28;20035;-73
2021/01/10 01:10:00;;;;;;;30.88;18.17;;;;;;;;;;5075868;28;20032;-74
2021/01/10 01:12:26;;;;;;;25.90;15.85;;;;;;;;;;5094044;28;20042;-74
2021/01/10 01:14:51;;;;;;;26.38;15.32;;;;;;;;;;5094189;28;20027;-74
2021/01/10 01:17:18;;;;;;;27.38;16.83;;;;;;;;;;5094179;28;20433;-74
2021/01/10 01:19:44;;;;;;;24.98;15.70;;;;;;;;;;5093767;28;20109;-74
2021/01/10 01:22:09;;;;;;;24.50;14.38;;;;;;;;;;5094176;28;20457;-74
2021/01/10 01:24:34;;;;;;;27.83;15.45;;;;;;;;;;5093705;28;20118;-74
2021/01/10 01:27:00;;;;;;;22.83;14.05;;;;;;;;;;5093430;28;20028;-74
2021/01/10 01:29:25;;;;;;;22.20;13.70;;;;;;;;;;5094152;28;20446;-74
2021/01/10 01:31:50;;;;;;;22.20;14.23;;;;;;;;;;5092935;28;20051;-74
2021/01/10 01:34:16;;;;;;;22.77;14.60;;;;;;;;;;5094203;28;20556;-74
2021/01/10 01:36:41;;;;;;;28.55;16.27;;;;;;;;;;5094010;28;20089;-74
2021/01/10 01:39:06;;;;;;;25.98;16.00;;;;;;;;;;5093964;28;20031;-74
2021/01/10 01:41:37;;;;;;;25.02;15.20;;;;;;;;;;5093026;28;20044;-74
2021/01/10 01:44:03;;;;;;;28.40;16.55;;;;;;;;;;5093783;28;20555;-74
2021/01/10 01:46:34;;;;;;;26.80;15.15;;;;;;;;;;5093743;28;20044;-74
2021/01/10 01:49:03;;;;;;;26.60;15.70;;;;;;;;;;5076014;28;20385;-74
2021/01/10 01:51:29;;;;;;;23.45;15.02;;;;;;;;;;5092688;28;20168;-74
2021/01/10 01:53:54;;;;;;;22.80;13.80;;;;;;;;;;5093646;28;20110;-74
2021/01/10 01:56:20;;;;;;;21.17;13.57;;;;;;;;;;5092737;28;20123;-74
2021/01/10 01:59:02;;;;;;;23.83;14.23;;;;;;;;;;5092846;28;20040;-74
2021/01/10 02:01:30;;;;;;;21.67;13.57;;;;;;;;;;5094036;28;20044;-74
2021/01/10 02:04:01;;;;;;;24.20;14.45;;;;;;;;;;5094100;28;20047;-74
2021/01/10 02:06:31;;;;;;;27.33;14.88;;;;;;;;;;5093472;28;20032;-74
2021/01/10 02:09:01;;;;;;;25.48;14.88;;;;;;;;;;5092264;28;20091;-74
2021/01/10 02:11:28;;;;;;;24.98;14.35;;;;;;;;;;5093989;28;20065;-74
2021/01/10 02:13:54;;;;;;;22.85;13.65;;;;;;;;;;5093741;28;20092;-74
2021/01/10 02:16:20;;;;;;;25.70;15.55;;;;;;;;;;5093831;28;20111;-74
2021/01/10 02:18:46;;;;;;;27.95;15.70;;;;;;;;;;5093473;28;20035;-74
2021/01/10 02:21:12;;;;;;;27.60;16.25;;;;;;;;;;5093520;28;20036;-74
2021/01/10 02:23:40;;;;;;;28.33;16.25;;;;;;;;;;5092935;28;20043;-74
2021/01/10 02:26:06;;;;;;;25.42;16.08;;;;;;;;;;5093784;28;20123;-74
2021/01/10 02:28:32;;;;;;;25.45;16.15;;;;;;;;;;5093432;28;20473;-74
2021/01/10 02:30:59;;;;;;;30.42;16.23;;;;;;;;;;5093361;28;20054;-74
2021/01/10 02:33:33;;;;;;;28.27;17.35;;;;;;;;;;5093292;28;20043;-74
2021/01/10 02:36:06;;;;;;;26.02;16.10;;;;;;;;;;5093404;28;20123;-74
2021/01/10 02:38:59;;;;;;;32.42;17.83;;;;;;;;;;5097190;28;20452;-74
2021/01/10 02:41:43;;;;;;;27.92;17.58;;;;;;;;;;5096883;28;20043;-74
2021/01/10 02:44:22;;;;;;;28.10;16.48;;;;;;;;;;5094864;28;20122;-74
2021/01/10 02:46:52;;;;;;;27.08;16.58;;;;;;;;;;5097101;28;20115;-74
2021/01/10 02:49:19;;;;;;;28.52;16.23;;;;;;;;;;5095862;28;20063;-74
2021/01/10 02:51:51;;;;;;;27.83;16.63;;;;;;;;;;5095833;28;20047;-74
2021/01/10 02:54:18;;;;;;;28.48;17.52;;;;;;;;;;5095187;28;20036;-74
2021/01/10 02:57:15;;;;;;;33.72;17.63;;;;;;;;;;5095821;28;20063;-74
2021/01/10 02:59:42;;;;;;;;;;;;;;;;;;5097493;28;20122;-74
2021/01/10 03:02:09;;;;;;;27.98;16.73;;;;;;;;;;5096875;28;19915;-74
2021/01/10 03:04:35;;;;;;;23.80;15.15;;;;;;;;;;5096810;28;20045;-74
2021/01/10 03:07:03;;;;;;;24.13;14.27;;;;;;;;;;5096493;28;20040;-74
2021/01/10 03:09:29;;;;;;;26.63;16.48;;;;;;;;;;5096199;28;20043;-74
2021/01/10 03:11:55;;;;;;;32.58;18.58;;;;;;;;;;5096809;28;20035;-74
2021/01/10 03:14:21;;;;;;;33.25;18.80;;;;;;;;;;5094873;28;20514;-73
2021/01/10 03:16:48;;;;;;;28.73;17.02;;;;;;;;;;5094449;28;20024;-74
2021/01/10 03:19:14;;;;;;;28.40;17.33;;;;;;;;;;5095593;28;20028;-74
2021/01/10 03:21:39;;;;;;;26.42;16.08;;;;;;;;;;5095203;28;20092;-74
2021/01/10 03:24:05;;;;;;;24.65;15.23;;;;;;;;;;5095317;28;20102;-73
2021/01/10 03:26:31;;;;;;;27.52;16.90;;;;;;;;;;5094266;28;20028;-74
2021/01/10 03:28:56;;;;;;;30.58;17.13;;;;;;;;;;5095407;28;20100;-73
2021/01/10 03:31:21;;;;;;;30.15;18.33;;;;;;;;;;5095711;28;20074;-74
2021/01/10 03:33:47;;;;;;;33.20;19.02;;;;;;;;;;5095438;28;20067;-74
2021/01/10 03:36:13;;;;;;;30.17;16.50;;;;;;;;;;5095060;28;20036;-74
2021/01/10 03:38:38;;;;;;;27.73;16.98;;;;;;;;;;5095750;28;20477;-73
2021/01/10 03:41:04;;;;;;;29.48;15.65;;;;;;;;;;5096078;28;20043;-74
2021/01/10 03:43:30;;;;;;;26.77;16.55;;;;;;;;;;5094681;28;20039;-74
2021/01/10 03:45:55;;;;;;;23.98;15.27;;;;;;;;;;5095952;28;20078;-73
2021/01/10 03:48:20;;;;;;;27.27;17.02;;;;;;;;;;5094922;28;20044;-74
2021/01/10 03:50:46;;;;;;;26.40;16.02;;;;;;;;;;5095985;28;20097;-74
2021/01/10 03:53:11;;;;;;;25.23;15.32;;;;;;;;;;5095844;28;20165;-74
2021/01/10 03:55:36;;;;;;;27.20;15.95;;;;;;;;;;5095506;28;20085;-73
2021/01/10 03:58:02;;;;;;;23.92;14.40;;;;;;;;;;5096155;28;20032;-74
2021/01/10 04:00:27;;;;;;;27.90;16.55;;;;;;;;;;5096121;28;20367;-74
2021/01/10 04:02:52;;;;;;;25.80;15.13;;;;;;;;;;5095785;28;20085;-74
2021/01/10 04:05:18;;;;;;;22.27;14.32;;;;;;;;;;5095626;28;20413;-73
2021/01/10 04:07:43;;;;;;;27.58;16.33;;;;;;;;;;5095885;28;20119;-74
2021/01/10 04:10:09;;;;;;;29.92;17.58;;;;;;;;;;5095534;28;20185;-74
2021/01/10 04:12:34;;;;;;;31.38;17.38;;;;;;;;;;5095518;28;20032;-74
2021/01/10 04:14:59;;;;;;;32.35;19.15;;;;;;;;;;5095589;28;20035;-74
2021/01/10 04:17:25;;;;;;;30.98;18.23;;;;;;;;;;5095862;28;20024;-74
2021/01/10 04:19:54;;;;;;;34.30;19.38;;;;;;;;;;5095198;28;20355;-74
2021/01/10 04:22:20;;;;;;;40.95;19.67;;;;;;;;;;5094904;28;20126;-73
2021/01/10 04:24:46;;;;;;;27.50;17.83;;;;;;;;;;5094931;28;20473;-73
2021/01/10 04:27:11;;;;;;;33.53;19.20;;;;;;;;;;5094942;28;20043;-74
2021/01/10 04:29:37;;;;;;;31.08;17.20;;;;;;;;;;5095231;28;20048;-74
2021/01/10 04:32:02;;;;;;;27.63;16.27;;;;;;;;;;5094802;28;20040;-74
2021/01/10 04:34:27;;;;;;;29.77;17.13;;;;;;;;;;5094717;28;20048;-74
2021/01/10 04:36:53;;;;;;;27.35;15.75;;;;;;;;;;5095113;28;20118;-74
2021/01/10 04:39:18;;;;;;;26.70;16.23;;;;;;;;;;5094596;28;20036;-74
2021/01/10 04:41:44;;;;;;;26.85;16.00;;;;;;;;;;5095011;28;20039;-74
2021/01/10 04:44:12;;;;;;;27.35;16.17;;;;;;;;;;5094392;28;20056;-74
2021/01/10 04:46:38;;;;;;;23.33;15.80;;;;;;;;;;5094687;28;20055;-74
2021/01/10 04:49:05;;;;;;;28.35;16.42;;;;;;;;;;5094795;28;20074;-73
2021/01/10 04:51:31;;;;;;;28.85;16.48;;;;;;;;;;5093387;28;20046;-74
2021/01/10 04:53:59;;;;;;;24.10;14.90;;;;;;;;;;5094328;28;20067;-73
2021/01/10 04:56:29;;;;;;;24.05;15.02;;;;;;;;;;5094752;28;20122;-74
2021/01/10 04:59:00;;;;;;;26.50;15.90;;;;;;;;;;5094626;28;20036;-74
2021/01/10 05:01:30;;;;;;;26.80;16.10;;;;;;;;;;5094262;28;20044;-74
2021/01/10 05:03:55;;;;;;;25.42;15.40;;;;;;;;;;5094614;28;20375;-74
2021/01/10 05:06:22;;;;;;;28.15;17.42;;;;;;;;;;5094530;28;20031;-74
2021/01/10 05:08:48;;;;;;;25.63;14.90;;;;;;;;;;5093151;28;20024;-74
2021/01/10 05:11:15;;;;;;;23.73;14.65;;;;;;;;;;5094199;28;20028;-74
2021/01/10 05:13:41;;;;;;;28.42;15.57;;;;;;;;;;5094339;28;20079;-74
2021/01/10 05:16:06;;;;;;;26.05;15.45;;;;;;;;;;5094480;28;20063;-74
2021/01/10 05:18:32;;;;;;;28.77;16.15;;;;;;;;;;5094024;28;20036;-74
2021/01/10 05:20:57;;;;;;;33.42;17.33;;;;;;;;;;5093269;28;20040;-74
2021/01/10 05:23:27;;;;;;;26.90;15.63;;;;;;;;;;5094355;28;20076;-74
2021/01/10 05:26:05;;;;;;;26.20;16.05;;;;;;;;;;5094131;28;20052;-74
2021/01/10 05:28:32;;;;;;;24.42;15.20;;;;;;;;;;5092556;28;20032;-73
2021/01/10 05:31:01;;;;;;;26.13;15.50;;;;;;;;;;5093697;28;20466;-74
2021/01/10 05:33:27;;;;;;;25.55;16.13;;;;;;;;;;5094000;28;20035;-74
2021/01/10 05:35:54;;;;;;;26.63;16.52;;;;;;;;;;5094024;28;20032;-74
2021/01/10 05:38:28;;;;;;;27.88;15.50;;;;;;;;;;5092523;28;20036;-74
2021/01/10 05:40:54;;;;;;;26.35;15.63;;;;;;;;;;5093623;28;20123;-74
2021/01/10 05:43:20;;;;;;;28.23;16.13;;;;;;;;;;5093349;28;20146;-74
2021/01/10 05:45:45;;;;;;;29.10;16.40;;;;;;;;;;5093523;28;20123;-73
2021/01/10 05:48:13;;;;;;;28.08;16.48;;;;;;;;;;5093471;28;20028;-74
2021/01/10 05:50:49;;;;;;;26.92;16.10;;;;;;;;;;5093555;28;20039;-74
2021/01/10 05:53:21;;;;;;;28.05;16.10;;;;;;;;;;5093605;28;20450;-74
2021/01/10 05:56:00;;;;;;;26.65;16.25;;;;;;;;;;5093289;28;20184;-74
2021/01/10 05:58:30;;;;;;;28.42;16.42;;;;;;;;;;5093564;28;20040;-73
2021/01/10 06:01:09;;;;;;;27.77;15.98;;;;;;;;;;5093729;28;20032;-74
2021/01/10 06:03:35;;;;;;;29.60;17.55;;;;;;;;;;5093878;28;20517;-74
2021/01/10 06:06:04;;;;;;;29.67;17.45;;;;;;;;;;5092427;28;20086;-74
2021/01/10 06:08:35;;;;;;;27.25;16.27;;;;;;;;;;5093567;28;20706;-74
2021/01/10 06:11:16;;;;;;;27.65;15.80;;;;;;;;;;5093028;28;20047;-73
2021/01/10 06:13:49;;;;;;;22.95;14.25;;;;;;;;;;5093476;28;20067;-73
2021/01/10 06:16:17;;;;;;;24.42;14.57;;;;;;;;;;5093651;28;20020;-74
2021/01/10 06:19:11;;;;;;;27.00;16.00;;;;;;;;;;5093360;28;20055;-74
2021/01/10 06:21:37;;;;;;;31.52;17.40;;;;;;;;;;5091145;28;20059;-74
2021/01/10 06:24:05;;;;;;;26.27;15.75;;;;;;;;;;5093378;28;20575;-73
2021/01/10 06:26:34;;;;;;;25.38;16.30;;;;;;;;;;5093146;28;20505;-74
2021/01/10 06:29:05;;;;;;;22.50;14.20;;;;;;;;;;5092345;28;20036;-74
2021/01/10 06:31:33;;;;;;;23.02;14.52;;;;;;;;;;5093412;28;20481;-73
2021/01/10 06:34:05;;;;;;;24.48;14.93;;;;;;;;;;5093906;28;20470;-74
2021/01/10 06:36:36;;;;;;;24.25;14.38;;;;;;;;;;5093930;28;20024;-74
2021/01/10 06:39:15;;;;;;;28.05;15.68;;;;;;;;;;5093579;28;20089;-74
2021/01/10 06:41:46;;;;;;;24.80;14.93;;;;;;;;;;5093604;28;20040;-74
2021/01/10 06:44:12;;;;;;;24.63;15.80;;;;;;;;;;5093048;28;20039;-73
2021/01/10 06:46:37;;;;;;;27.67;15.75;;;;;;;;;;5093499;28;20058;-74
2021/01/10 06:49:04;;;;;;;26.38;16.50;;;;;;;;;;5093275;28;20036;-74
2021/01/10 06:51:29;;;;;;;25.55;15.55;;;;;;;;;;5093348;28;20440;-74
2021/01/10 06:53:56;;;;;;;27.40;15.95;;;;;;;;;;5093372;28;20034;-74
2021/01/10 06:56:21;;;;;;;29.60;16.45;;;;;;;;;;5092915;28;20036;-74
2021/01/10 06:59:10;;;;;;;25.85;16.02;;;;;;;;;;5092862;28;20093;-74
2021/01/10 07:01:48;;;;;;;25.73;16.23;;;;;;;;;;5079005;28;20048;-74
2021/01/10 07:04:14;;;;;;;26.95;16.02;;;;;;;;;;5092899;28;20036;-74
2021/01/10 07:06:44;;;;;;;26.52;16.67;;;;;;;;;;5093062;28;20024;-74
2021/01/10 07:09:10;;;;;;;30.23;16.38;;;;;;;;;;5091873;28;20032;-74
2021/01/10 07:11:36;;;;;;;27.63;16.60;;;;;;;;;;5092929;28;20035;-73
2021/01/10 07:14:01;;;;;;;27.80;16.10;;;;;;;;;;5093025;28;20035;-74
2021/01/10 07:16:28;;;;;;;29.15;16.70;;;;;;;;;;5092468;28;20036;-74
2021/01/10 07:19:04;;;;;;;30.33;16.45;;;;;;;;;;5092244;28;20055;-74
2021/01/10 07:21:33;;;;;;;26.05;14.93;;;;;;;;;;5092317;28;20036;-73
2021/01/10 07:26:54;;;;;;;32.22;18.23;;;;;;;;;;5095555;28;20044;-70
2021/01/10 07:29:44;;;;;;;30.02;16.83;;;;;;;;;;5095959;28;20122;-71
2021/01/10 07:32:21;;;;;;;27.17;16.60;;;;;;;;;;5095662;28;20089;-72
2021/01/10 07:34:47;;;;;;;24.15;15.63;;;;;;;;;;5095967;28;20035;-74
2021/01/10 07:37:16;;;;;;;28.13;16.45;;;;;;;;;;5079051;28;20028;-74
2021/01/10 07:39:58;;;;;;;25.55;16.67;;;;;;;;;;5077711;28;21040;-75
2021/01/10 07:42:26;;;;;;;24.83;15.40;;;;;;;;;;5094212;28;20039;-75
2021/01/10 07:44:57;;;;;;;30.83;15.30;;;;;;;;;;5077621;28;20432;-75
2021/01/10 07:47:29;;;;;;;24.15;14.80;;;;;;;;;;5094583;28;20386;-75
2021/01/10 07:49:56;;;;;;;27.83;16.55;;;;;;;;;;5095300;28;20052;-74
2021/01/10 07:52:46;;;;;;;26.90;15.55;;;;;;;;;;5096006;28;20036;-74
2021/01/10 07:55:11;;;;;;;22.70;15.18;;;;;;;;;;5096323;28;20028;-74
2021/01/10 07:57:37;;;;;;;25.92;16.35;;;;;;;;;;5078622;28;20649;-74
2021/01/10 08:00:16;;;;;;;26.10;15.93;;;;;;;;;;5096146;28;20032;-74
2021/01/10 08:02:59;;;;;;;27.38;17.80;;;;;;;;;;5095061;28;20058;-74
2021/01/10 08:05:33;;;;;;;35.63;19.73;;;;;;;;;;5095702;28;20462;-72
2021/01/10 08:08:01;;;;;;;32.30;18.55;;;;;;;;;;5094644;28;20472;-71
2021/01/10 08:10:53;;;;;;;30.42;17.40;;;;;;;;;;5095407;28;20443;-72
2021/01/10 08:13:39;;;;;;;33.92;20.00;;;;;;;;;;5086455;28;20520;-72
2021/01/10 08:16:09;;;;;;;31.58;19.15;;;;;;;;;;5095560;28;20024;-72
2021/01/10 08:18:45;;;;;;;32.55;18.80;;;;;;;;;;5095385;28;20078;-72
2021/01/10 08:21:12;;;;;;;33.78;18.65;;;;;;;;;;5095561;28;20055;-71
2021/01/10 08:23:40;;;;;;;33.85;19.55;;;;;;;;;;5095315;28;20101;-72
2021/01/10 08:26:10;;;;;;;30.35;18.60;;;;;;;;;;5095280;28;20032;-72
2021/01/10 08:28:40;;;;;;;34.40;17.23;;;;;;;;;;5095073;28;20032;-72
2021/01/10 08:31:11;;;;;;;31.05;18.60;;;;;;;;;;5094109;28;20047;-72
2021/01/10 08:33:37;;;;;;;34.05;19.50;;;;;;;;;;5094189;28;20039;-71
2021/01/10 08:36:12;;;;;;;33.10;19.20;;;;;;;;;;5095181;28;20031;-71
2021/01/10 08:38:47;;;;;;;30.73;18.60;;;;;;;;;;5095044;28;20634;-73
2021/01/10 08:41:32;;;;;;;30.83;19.58;;;;;;;;;;5095254;28;20032;-72
2021/01/10 08:44:09;;;;;;;29.65;17.88;;;;;;;;;;5095371;28;20074;-73
2021/01/10 08:46:38;;;;;;;34.22;18.17;;;;;;;;;;5077144;28;20096;-74
2021/01/10 08:49:03;;;;;;;29.67;18.95;;;;;;;;;;5096044;28;20092;-75
2021/01/10 08:51:36;;;;;;;28.95;18.35;;;;;;;;;;5095296;28;20461;-71
2021/01/10 08:54:23;;;;;;;29.73;16.98;;;;;;;;;;5076699;28;20043;-73
2021/01/10 08:56:55;;;;;;;29.70;17.45;;;;;;;;;;5094843;28;20040;-73
2021/01/10 08:59:21;;;;;;;30.85;18.88;;;;;;;;;;5095753;28;20032;-74
2021/01/10 09:01:47;;;;;;;33.65;20.75;;;;;;;;;;5077258;28;20032;-73
2021/01/10 09:04:14;;;;;;;29.38;18.35;;;;;;;;;;5094922;28;20031;-74
2021/01/10 09:06:51;;;;;;;34.75;21.13;;;;;;;;;;5095084;28;20047;-72
2021/01/10 09:09:22;;;;;;;38.55;23.08;;;;;;;;;;5095231;28;20031;-72
2021/01/10 09:12:00;;;;;;;41.78;24.15;;;;;;;;;;5094614;28;20106;-76
2021/01/10 09:14:32;;;;;;;45.90;25.80;;;;;;;;;;5095408;28;20043;-74
2021/01/10 09:17:00;;;;;;;47.70;25.80;;;;;;;;;;5094514;28;20040;-72
2021/01/10 09:19:27;;;;;;;45.13;25.23;;;;;;;;;;5094316;28;20024;-73
2021/01/10 09:21:53;;;;;;;43.35;26.02;;;;;;;;;;5092618;28;20458;-73
2021/01/10 09:24:18;;;;;;;44.97;26.83;;;;;;;;;;5094130;28;20038;-74
2021/01/10 09:26:44;;;;;;;41.50;24.58;;;;;;;;;;5093947;28;20032;-75
2021/01/10 09:29:19;;;;;;;40.92;24.42;;;;;;;;;;5094169;28;20587;-76
2021/01/10 09:31:47;;;;;;;36.45;23.13;;;;;;;;;;5093066;28;20653;-76
2021/01/10 09:34:14;;;;;;;40.38;25.20;;;;;;;;;;5094267;28;20485;-75
2021/01/10 09:36:40;;;;;;;39.47;23.13;;;;;;;;;;5092393;28;20067;-74
2021/01/10 09:39:07;;;;;;;38.83;23.20;;;;;;;;;;5094065;28;20066;-77
2021/01/10 09:41:58;;;;;;;46.55;24.52;;;;;;;;;;5093793;28;20032;-73
2021/01/10 09:44:24;;;;;;;41.22;22.42;;;;;;;;;;5076311;28;20165;-75
2021/01/10 09:46:52;;;;;;;37.33;22.90;;;;;;;;;;5092661;28;20040;-74
2021/01/10 09:49:22;;;;;;;41.13;24.00;;;;;;;;;;5089553;28;20032;-73
2021/01/10 09:51:47;;;;;;;35.50;22.67;;;;;;;;;;5078361;28;20036;-73
2021/01/10 09:54:17;;;;;;;37.58;21.45;;;;;;;;;;5076950;28;20447;-74
2021/01/10 09:56:48;;;;;;;36.42;21.35;;;;;;;;;;5093321;28;20032;-75
2021/01/10 09:59:37;;;;;;;35.10;19.30;;;;;;;;;;5094555;28;20032;-75
2021/01/10 10:02:14;;;;;;;34.17;20.55;;;;;;;;;;5096103;28;20036;-80
2021/01/10 10:04:45;;;;;;;32.47;21.23;;;;;;;;;;5092508;28;20461;-75
2021/01/10 10:07:11;;;;;;;28.08;18.73;;;;;;;;;;5093330;28;20104;-76
2021/01/10 10:09:47;;;;;;;27.70;18.48;;;;;;;;;;5093197;28;20469;-76
2021/01/10 10:12:13;;;;;;;28.00;17.77;;;;;;;;;;5089528;28;20183;-77
2021/01/10 10:14:48;;;;;;;26.85;16.65;;;;;;;;;;5073184;28;20726;-76
2021/01/10 10:17:13;;;;;;;27.17;17.25;;;;;;;;;;5073231;28;20032;-75
2021/01/10 10:19:39;;;;;;;32.08;18.38;;;;;;;;;;5071716;28;20016;-73
2021/01/10 10:22:18;;;;;;;28.80;16.77;;;;;;;;;;5072481;28;20040;-74
2021/01/10 10:24:43;;;;;;;24.00;17.05;;;;;;;;;;5072337;28;20135;-74
2021/01/10 10:27:09;;;;;;;25.38;16.50;;;;;;;;;;5072197;28;20159;-74
2021/01/10 10:29:34;;;;;;;24.30;15.25;;;;;;;;;;5072566;28;20070;-74
2021/01/10 10:31:59;;;;;;;23.42;15.45;;;;;;;;;;5072528;28;20036;-74
2021/01/10 10:34:25;;;;;;;23.35;14.23;;;;;;;;;;5072903;28;20463;-75
2021/01/10 10:36:50;;;;;;;22.00;14.85;;;;;;;;;;5074001;28;20086;-75
2021/01/10 10:39:16;;;;;;;18.45;13.27;;;;;;;;;;5072212;28;20048;-78
2021/01/10 10:41:41;;;;;;;19.38;13.18;;;;;;;;;;5073384;28;20032;-73
2021/01/10 10:44:07;;;;;;;19.20;12.80;;;;;;;;;;5091982;28;20048;-79
2021/01/10 10:46:32;;;;;;;20.48;13.13;;;;;;;;;;5093727;28;20122;-76
2021/01/10 10:48:58;;;;;;;20.02;13.25;;;;;;;;;;5096127;28;20067;-78
2021/01/10 10:51:28;;;;;;;21.05;14.38;;;;;;;;;;5095065;28;20089;-76
2021/01/10 10:53:54;;;;;;;22.48;14.32;;;;;;;;;;5094447;28;20040;-76
2021/01/10 10:56:20;;;;;;;19.58;13.32;;;;;;;;;;5091690;28;20032;-75
2021/01/10 10:58:45;;;;;;;26.08;16.73;;;;;;;;;;5097350;28;20047;-77
2021/01/10 11:01:10;;;;;;;27.70;17.85;;;;;;;;;;5098642;28;20032;-77
2021/01/10 11:03:36;;;;;;;25.05;16.52;;;;;;;;;;5097843;28;20046;-76
2021/01/10 11:06:01;;;;;;;23.08;15.23;;;;;;;;;;5099134;28;20039;-77
2021/01/10 11:08:26;;;;;;;23.73;16.20;;;;;;;;;;5098429;28;20042;-75
2021/01/10 11:10:52;;;;;;;22.10;14.15;;;;;;;;;;5098305;28;20035;-78
2021/01/10 11:13:17;;;;;;;19.05;13.93;;;;;;;;;;5111921;28;20128;-79
2021/01/10 11:15:43;;;;;;;21.50;14.23;;;;;;;;;;5117871;28;20485;-77
2021/01/10 11:18:08;;;;;;;22.08;14.45;;;;;;;;;;5118495;28;20101;-76
2021/01/10 11:20:35;;;;;;;22.52;15.63;;;;;;;;;;5116573;28;20035;-74
2021/01/10 11:23:02;;;;;;;20.50;13.30;;;;;;;;;;5116922;27;20039;-74
2021/01/10 11:25:27;;;;;;;22.58;15.43;;;;;;;;;;5116797;28;20035;-75
2021/01/10 11:27:52;;;;;;;23.30;13.88;;;;;;;;;;5117434;28;20041;-75
2021/01/10 11:30:18;;;;;;;20.63;13.45;;;;;;;;;;5115886;28;20134;-75
2021/01/10 11:32:43;;;;;;;20.88;13.70;;;;;;;;;;5116855;28;20038;-76
2021/01/10 11:35:09;;;;;;;21.23;14.38;;;;;;;;;;5116875;28;20027;-76
2021/01/10 11:37:35;;;;;;;18.60;13.32;;;;;;;;;;5116298;28;20035;-76
2021/01/10 11:40:00;;;;;;;19.40;13.35;;;;;;;;;;5116551;28;20027;-76
2021/01/10 11:42:26;;;;;;;24.60;14.43;;;;;;;;;;5112125;28;20036;-76
2021/01/10 11:44:53;;;;;;;22.85;15.55;;;;;;;;;;5096009;28;20052;-76
2021/01/10 11:47:21;;;;;;;23.02;15.10;;;;;;;;;;5096088;28;20043;-77
2021/01/10 11:49:46;;;;;;;23.58;14.43;;;;;;;;;;5096042;28;20036;-77
2021/01/10 11:52:12;;;;;;;20.63;13.82;;;;;;;;;;5096353;28;20032;-77
2021/01/10 11:54:37;;;;;;;25.08;15.25;;;;;;;;;;5096203;28;20066;-77
2021/01/10 11:57:03;;;;;;;21.70;14.82;;;;;;;;;;5095689;28;20078;-77
2021/01/10 11:59:28;;;;;;;22.33;14.18;;;;;;;;;;5095553;28;20039;-76
2021/01/10 12:01:53;;;;;;;17.95;13.00;;;;;;;;;;5094700;28;20541;-76
2021/01/10 12:04:19;;;;;;;19.95;13.77;;;;;;;;;;5095638;28;20039;-76
2021/01/10 12:06:44;;;;;;;23.85;14.38;;;;;;;;;;5095475;28;20351;-76
2021/01/10 12:09:13;;;;;;;22.08;14.07;;;;;;;;;;5094493;28;20040;-75
2021/01/10 12:11:40;;;;;;;18.50;12.55;;;;;;;;;;5095075;28;20028;-75
2021/01/10 12:14:06;;;;;;;19.02;12.35;;;;;;;;;;5095020;28;20039;-76
2021/01/10 12:16:31;;;;;;;16.08;11.57;;;;;;;;;;5095558;28;20031;-76
2021/01/10 12:18:57;;;;;;;17.88;11.75;;;;;;;;;;5095318;28;20369;-76
2021/01/10 12:21:22;;;;;;;17.90;12.85;;;;;;;;;;5095331;28;20119;-76
2021/01/10 12:23:48;;;;;;;19.50;12.68;;;;;;;;;;5095218;28;20104;-77
2021/01/10 12:26:14;;;;;;;17.98;11.57;;;;;;;;;;5094973;28;20044;-76
2021/01/10 12:28:41;;;;;;;23.67;12.93;;;;;;;;;;5095233;28;20028;-76
2021/01/10 12:31:07;;;;;;;16.58;11.25;;;;;;;;;;5095214;28;20036;-76
2021/01/10 12:33:33;;;;;;;14.73;11.00;;;;;;;;;;5095065;28;20035;-77
2021/01/10 12:35:59;;;;;;;15.95;11.02;;;;;;;;;;5095076;28;20031;-76
2021/01/10 12:38:25;;;;;;;16.52;11.32;;;;;;;;;;5094543;28;20123;-76
2021/01/10 12:40:50;;;;;;;16.77;11.40;;;;;;;;;;5094552;28;20075;-76
2021/01/10 12:43:16;;;;;;;16.33;10.70;;;;;;;;;;5094716;28;20032;-76
2021/01/10 12:45:41;;;;;;;16.80;11.68;;;;;;;;;;5094748;28;20489;-76
2021/01/10 12:48:07;;;;;;;18.00;11.93;;;;;;;;;;5094706;28;20046;-76
2021/01/10 12:50:32;;;;;;;20.00;12.98;;;;;;;;;;5093570;28;20028;-75
2021/01/10 12:52:58;;;;;;;17.73;12.10;;;;;;;;;;5094695;28;20039;-75
2021/01/10 12:55:23;;;;;;;19.02;12.45;;;;;;;;;;5094520;28;20379;-75
2021/01/10 12:57:48;;;;;;;15.77;11.57;;;;;;;;;;5094678;28;20542;-75
2021/01/10 13:00:14;;;;;;;16.63;11.38;;;;;;;;;;5093407;28;20090;-75
2021/01/10 13:02:40;;;;;;;19.33;12.32;;;;;;;;;;5094345;28;20078;-76
2021/01/10 13:05:07;;;;;;;18.63;12.35;;;;;;;;;;5094581;28;20036;-75
2021/01/10 13:07:36;;;;;;;18.15;11.57;;;;;;;;;;5095236;28;20042;-75
2021/01/10 13:10:06;;;;;;;18.55;11.73;;;;;;;;;;5094834;28;20055;-75
2021/01/10 13:12:32;;;;;;;18.00;11.23;;;;;;;;;;5094323;28;20617;-72
2021/01/10 13:14:59;;;;;;;17.50;11.52;;;;;;;;;;5094389;28;20079;-73
2021/01/10 13:17:26;;;;;;;19.70;11.65;;;;;;;;;;5094304;28;20032;-73
2021/01/10 13:19:51;;;;;;;20.98;12.65;;;;;;;;;;5093856;28;20110;-73
2021/01/10 13:22:17;;;;;;;16.20;11.50;;;;;;;;;;5094329;28;20105;-73
2021/01/10 13:24:42;;;;;;;17.90;10.98;;;;;;;;;;5093171;28;20051;-73
2021/01/10 13:27:07;;;;;;;14.52;10.82;;;;;;;;;;5093845;28;20032;-73
2021/01/10 13:29:33;;;;;;;17.27;12.25;;;;;;;;;;5093962;28;20111;-73
2021/01/10 13:32:01;;;;;;;16.67;11.07;;;;;;;;;;5093994;28;20115;-73
2021/01/10 13:34:27;;;;;;;16.55;11.63;;;;;;;;;;5092820;28;20093;-73
2021/01/10 13:36:57;;;;;;;16.83;11.82;;;;;;;;;;5093787;28;20377;-73
2021/01/10 13:39:23;;;;;;;16.27;11.55;;;;;;;;;;5093883;28;20036;-73
2021/01/10 13:41:48;;;;;;;17.95;11.82;;;;;;;;;;5093780;28;20081;-73
2021/01/10 13:44:14;;;;;;;16.42;11.63;;;;;;;;;;5093864;28;20044;-73
2021/01/10 13:46:40;;;;;;;16.25;11.02;;;;;;;;;;5093559;28;20040;-73
2021/01/10 13:49:05;;;;;;;17.75;12.07;;;;;;;;;;5092613;28;20040;-73
2021/01/10 13:51:31;;;;;;;17.60;12.38;;;;;;;;;;5093807;28;20032;-73
2021/01/10 13:53:56;;;;;;;15.55;11.32;;;;;;;;;;5092192;28;20032;-73
2021/01/10 13:56:24;;;;;;;16.25;11.52;;;;;;;;;;5093848;28;20043;-73
2021/01/10 13:58:50;;;;;;;20.58;12.18;;;;;;;;;;5093648;28;20032;-73
2021/01/10 14:01:16;;;;;;;17.20;12.63;;;;;;;;;;5093434;28;20057;-73
2021/01/10 14:03:41;;;;;;;19.92;12.48;;;;;;;;;;5093709;28;20115;-73
2021/01/10 14:06:08;;;;;;;18.88;12.40;;;;;;;;;;5093328;28;20039;-73
2021/01/10 14:08:36;;;;;;;17.08;11.48;;;;;;;;;;5093760;28;20103;-73
2021/01/10 14:11:02;;;;;;;16.95;12.15;;;;;;;;;;5093747;28;20068;-73
2021/01/10 14:13:27;;;;;;;16.00;11.43;;;;;;;;;;5092542;28;20105;-73
2021/01/10 14:15:53;;;;;;;19.05;11.80;;;;;;;;;;5093336;28;20032;-73
2021/01/10 14:18:19;;;;;;;16.58;11.90;;;;;;;;;;5093282;28;20043;-73
2021/01/10 14:20:45;;;;;;;18.55;12.75;;;;;;;;;;5093323;28;20077;-73
2021/01/10 14:23:10;;;;;;;20.98;12.07;;;;;;;;;;5093410;28;20040;-73
2021/01/10 14:25:36;;;;;;;20.25;12.45;;;;;;;;;;5093210;28;20035;-73
2021/01/10 14:28:05;;;;;;;18.88;12.52;;;;;;;;;;5093612;28;20036;-73